Flight Track Log - Related Links

Times and Time Zones

All times are in EDT time to prevent confusion due to time zone crossing. See the N252HM flight status page for this flight to view local times or setup timezone preferences in your user account.

Time Position Orientation Groundspeed Altitude Reporting Facility
EDT Latitude Longitude Course Direction KTS MPH feet Rate Location/Type
Mon 12:14:18 PM 31.5967 -88.0867 37° Northeast 120 138 5,300  Level Houston Center
Mon 12:15:20 PM 31.6236 -88.0617 38° Northeast 123 142 6,200 857 Climbing Houston Center
Mon 12:15:56 PM 31.6419 -88.0442 39° Northeast 126 145 6,700 563 Climbing Atlanta Center
Mon 12:16:56 PM 31.6742 -88.0161 37° Northeast 132 152 7,100 450 Climbing Atlanta Center
Mon 12:17:56 PM 31.7108 -87.9811 39° Northeast 145 167 7,600 800 Climbing Atlanta Center
Mon 12:18:00 PM 31.6427 -88.0034 35° Northeast  Level FlightAware Approximate
Mon 12:18:56 PM 31.7411 -87.9508 40° Northeast 150 173 8,700  Level Atlanta Center
Mon 12:19:00 PM 31.6767 -87.9744 37° Northeast  Level FlightAware Approximate
Mon 12:19:56 PM 31.7733 -87.9206 39° Northeast 137 158 9,100  Level Atlanta Center
Mon 12:20:56 PM 31.8100 -87.8853 39° Northeast 150 173 9,100  Level Atlanta Center
Mon 12:21:56 PM 31.8506 -87.8506 36° Northeast 163 188 9,100  Level Atlanta Center
Mon 12:22:56 PM 31.8892 -87.8178 36° Northeast 163 188 9,100  Level Atlanta Center
Mon 12:23:56 PM 31.9258 -87.7803 41° Northeast 163 188 9,100  Level Atlanta Center
Mon 12:24:56 PM 31.9664 -87.7453 36° Northeast 163 188 9,100  Level Atlanta Center
Mon 12:25:56 PM 32.0011 -87.7075 43° Northeast 163 188 9,100  Level Atlanta Center
Mon 12:26:56 PM 32.0417 -87.6772 32° Northeast 163 188 9,100  Level Atlanta Center
Mon 12:27:56 PM 32.0739 -87.6394 45° Northeast 168 193 9,100  Level Atlanta Center
Mon 12:28:56 PM 32.1106 -87.5992 43° Northeast 168 193 9,100  Level Atlanta Center
Mon 12:29:56 PM 32.1450 -87.5636 41° Northeast 168 193 9,100  Level Atlanta Center
Mon 12:30:56 PM 32.1836 -87.5283 38° Northeast 168 193 9,100  Level Atlanta Center
Mon 12:31:56 PM 32.2283 -87.4983 30° Northeast 162 186 9,100  Level Atlanta Center
Mon 12:32:56 PM 32.2647 -87.4628 40° Northeast 162 186 9,100  Level Atlanta Center
Mon 12:33:56 PM 32.3033 -87.4275 38° Northeast 162 186 9,100  Level Atlanta Center
Mon 12:34:56 PM 32.3397 -87.3944 38° Northeast 162 186 9,100  Level Atlanta Center
Mon 12:35:56 PM 32.3781 -87.3614 36° Northeast 162 186 9,100  Level Atlanta Center
Mon 12:36:56 PM 32.4106 -87.3233 45° Northeast 167 192 9,100  Level Atlanta Center
Mon 12:37:56 PM 32.4469 -87.2878 40° Northeast 167 192 9,100  Level Atlanta Center
Mon 12:38:56 PM 32.4811 -87.2544 39° Northeast 167 192 9,100  Level Atlanta Center
Mon 12:39:56 PM 32.5197 -87.2214 36° Northeast 160 184 9,100  Level Atlanta Center
Mon 12:40:56 PM 32.5558 -87.1883 38° Northeast 160 184 9,100  Level Atlanta Center
Mon 12:41:56 PM 32.5964 -87.1528 36° Northeast 160 184 9,100  Level Atlanta Center
Mon 12:42:56 PM 32.6308 -87.1194 39° Northeast 160 184 9,100  Level Atlanta Center
Mon 12:43:56 PM 32.6692 -87.0839 38° Northeast 160 184 9,100  Level Atlanta Center
Mon 12:44:56 PM 32.7056 -87.0481 40° Northeast 160 184 9,100  Level Atlanta Center
Mon 12:45:56 PM 32.7419 -87.0147 38° Northeast 160 184 9,100  Level Atlanta Center
Mon 12:46:56 PM 32.7803 -86.9789 38° Northeast 160 184 9,100  Level Atlanta Center
Mon 12:47:56 PM 32.8167 -86.9456 38° Northeast 160 184 9,100  Level Atlanta Center
Mon 12:48:56 PM 32.8550 -86.9097 38° Northeast 160 184 9,100  Level Atlanta Center
Mon 12:49:43 PM 32.8869 -86.8858 32° Northeast 171 197 9,100  Level Atlanta Center
Mon 12:50:49 PM 32.9272 -86.8478 38° Northeast 171 197 9,100  Level Atlanta Center
Mon 12:51:44 PM 32.9617 -86.8117 41° Northeast 171 197 9,100  Level Atlanta Center
Mon 12:52:33 PM 32.9914 -86.7878 34° Northeast 172 198 9,100  Level Atlanta Center
Mon 12:53:39 PM 33.0361 -86.7447 39° Northeast 175 201 9,100 -90 Level Atlanta Center
Mon 12:54:46 PM 33.0767 -86.7061 39° Northeast 172 198 8,900 -283 Descending Atlanta Center
Mon 12:55:46 PM 33.1208 -86.6828 24° Northeast 178 205 8,500 -397 Descending Atlanta Center
Mon 12:56:47 PM 33.1669 -86.6742 North 171 197 8,100 -414 Descending Atlanta Center
Mon 12:57:42 PM 33.2089 -86.6631 12° North 170 196 7,700 -470 Descending Atlanta Center
Mon 12:58:42 PM 33.2514 -86.6369 27° Northeast 179 206 7,200 -595 Descending Atlanta Center
Mon 12:59:43 PM 33.2978 -86.6111 25° Northeast 179 206 6,500 -694 Descending Atlanta Center
Mon 01:00:43 PM 33.3444 -86.5803 29° Northeast 174 200 5,800 -694 Descending Atlanta Center
Mon 01:01:44 PM 33.3825 -86.5464 37° Northeast 180 207 5,100 -689 Descending Atlanta Center
Mon 01:02:45 PM 33.4189 -86.5053 43° Northeast 179 206 4,400 -645 Descending Atlanta Center
Mon 01:03:45 PM 33.4450 -86.4561 58° Northeast 168 193 3,800 -709 Descending Atlanta Center
Mon 01:04:52 PM 33.4708 -86.4097 56° Northeast 163 188 2,900 -806 Descending Atlanta Center

Login

Don't have an account? Register now (free) for customized features, flight alerts, and more!